createdAt,value
2024-02-08T00:02:50.245Z,73.93
2024-02-08T00:07:53.303Z,73.46
2024-02-08T00:12:56.068Z,74.23
2024-02-08T00:17:59.945Z,74.11
2024-02-08T00:23:03.034Z,73.38
2024-02-08T00:28:13.289Z,74.72
2024-02-08T00:33:16.458Z,74.38
2024-02-08T00:38:19.683Z,73.98
2024-02-08T00:43:22.907Z,73.80
2024-02-08T00:48:26.372Z,74.09
2024-02-08T00:53:29.016Z,74.13
2024-02-08T00:58:32.630Z,74.31
2024-02-08T01:03:37.717Z,74.26
2024-02-08T01:08:40.446Z,75.26
2024-02-08T01:13:43.374Z,75.19
2024-02-08T01:18:47.070Z,75.48
2024-02-08T01:23:50.517Z,74.98
2024-02-08T01:28:55.976Z,75.24
2024-02-08T01:33:59.224Z,75.33
2024-02-08T01:39:02.375Z,75.29
2024-02-08T01:44:09.099Z,76.30
2024-02-08T01:49:21.250Z,75.67
2024-02-08T01:54:24.005Z,75.64
2024-02-08T01:59:29.740Z,75.34
2024-02-08T02:04:32.783Z,76.93
2024-02-08T02:09:36.592Z,75.27
2024-02-08T02:14:40.602Z,76.36
2024-02-08T02:19:44.642Z,75.04
2024-02-08T02:24:50.652Z,75.27
2024-02-08T02:29:55.880Z,75.20
2024-02-08T02:34:58.860Z,75.09
2024-02-08T02:40:01.955Z,74.78
2024-02-08T02:45:14.542Z,74.64
2024-02-08T02:50:18.585Z,75.92
2024-02-08T02:55:21.636Z,74.52
2024-02-08T03:00:25.667Z,73.95
2024-02-08T03:05:28.581Z,74.15
2024-02-08T03:10:31.461Z,73.08
2024-02-08T03:15:38.420Z,73.24
2024-02-08T03:20:41.587Z,72.61
2024-02-08T03:25:44.528Z,72.48
2024-02-08T03:30:47.436Z,71.08
2024-02-08T03:35:54.839Z,72.11
2024-02-08T03:40:59.756Z,72.86
2024-02-08T03:46:06.473Z,71.99
2024-02-08T03:51:12.289Z,72.75
2024-02-08T03:56:17.290Z,72.83
2024-02-08T04:01:22.761Z,73.02
2024-02-08T04:06:38.460Z,72.88
2024-02-08T04:12:04.342Z,73.72
2024-02-08T04:17:25.763Z,72.95
2024-02-08T04:22:47.382Z,73.67
2024-02-08T04:28:10.039Z,74.92
2024-02-08T04:33:32.273Z,72.60
2024-02-08T04:38:53.488Z,73.75
2024-02-08T04:44:15.138Z,73.76
2024-02-08T04:49:36.631Z,73.80
2024-02-08T04:54:39.265Z,74.44
2024-02-08T04:59:43.008Z,73.31
2024-02-08T05:04:51.065Z,73.64
2024-02-08T05:09:54.326Z,72.72
2024-02-08T05:14:58.010Z,72.58
2024-02-08T05:20:01.048Z,72.34
2024-02-08T05:25:10.956Z,72.57
2024-02-08T05:30:16.776Z,71.25
2024-02-08T05:35:22.010Z,71.34
2024-02-08T05:40:26.351Z,70.14
2024-02-08T05:45:32.307Z,69.74
2024-02-08T05:50:37.992Z,70.54
2024-02-08T05:55:41.661Z,69.96
2024-02-08T06:00:54.618Z,68.61
2024-02-08T06:06:08.427Z,68.42
2024-02-08T06:11:21.568Z,69.69
2024-02-08T06:16:28.364Z,69.10
2024-02-08T06:21:43.685Z,68.45
2024-02-08T06:26:53.551Z,66.75
2024-02-08T06:32:04.383Z,68.52
2024-02-08T06:37:27.849Z,67.74
2024-02-08T06:42:56.802Z,65.95
2024-02-08T06:48:02.917Z,66.99
2024-02-08T06:53:24.293Z,66.61
2024-02-08T06:58:45.787Z,67.09
2024-02-08T07:04:07.369Z,66.54
2024-02-08T07:09:28.827Z,67.34
2024-02-08T07:14:50.653Z,66.90
2024-02-08T07:20:12.967Z,67.15
2024-02-08T07:25:34.660Z,67.56
2024-02-08T07:30:58.698Z,67.20
2024-02-08T07:36:23.188Z,67.62
2024-02-08T07:41:26.143Z,65.97
2024-02-08T07:46:33.326Z,63.80
2024-02-08T07:51:36.369Z,65.55
2024-02-08T07:56:48.245Z,65.36
2024-02-08T08:01:51.983Z,64.43
2024-02-08T08:07:02.037Z,64.81
2024-02-08T08:12:06.076Z,67.01
2024-02-08T08:17:14.865Z,66.06
2024-02-08T08:22:41.621Z,64.36
2024-02-08T08:28:12.071Z,65.63
2024-02-08T08:33:35.136Z,65.19
2024-02-08T08:38:46.075Z,66.33
2024-02-08T08:43:55.173Z,66.50
2024-02-08T08:48:58.437Z,66.18
2024-02-08T08:54:16.106Z,66.57
2024-02-08T08:59:21.183Z,66.11
2024-02-08T09:04:27.842Z,66.78
2024-02-08T09:09:49.755Z,67.45
2024-02-08T09:14:55.342Z,67.83
2024-02-08T09:20:01.152Z,68.67
2024-02-08T09:25:23.031Z,69.79
2024-02-08T09:30:40.217Z,70.02
2024-02-08T09:35:44.686Z,68.78
2024-02-08T09:40:52.728Z,68.01
2024-02-08T09:46:29.592Z,69.59
2024-02-08T09:51:36.800Z,69.36
2024-02-08T09:56:40.996Z,69.96
2024-02-08T10:01:45.976Z,69.97
2024-02-08T10:06:56.864Z,67.97
2024-02-08T10:12:04.380Z,67.92
2024-02-08T10:17:26.877Z,67.82
2024-02-08T10:22:35.279Z,68.43
2024-02-08T10:27:38.217Z,69.36
2024-02-08T10:32:41.012Z,69.02
2024-02-08T10:38:09.306Z,68.39
2024-02-08T10:43:19.784Z,66.89
2024-02-08T10:48:24.916Z,68.43
2024-02-08T10:53:44.997Z,66.01
2024-02-08T10:59:07.739Z,65.53
2024-02-08T11:04:20.156Z,64.09
2024-02-08T11:09:29.038Z,65.49
2024-02-08T11:14:55.101Z,64.16
2024-02-08T11:19:59.006Z,62.57
2024-02-08T11:25:21.009Z,62.26
2024-02-08T11:30:35.201Z,63.33
2024-02-08T11:35:57.752Z,62.66
2024-02-08T11:41:10.914Z,62.15
2024-02-08T11:46:20.759Z,62.72
2024-02-08T11:51:24.224Z,63.34
2024-02-08T11:56:30.692Z,61.87
2024-02-08T12:01:35.423Z,63.40
2024-02-08T12:06:48.133Z,62.14
2024-02-08T12:11:56.996Z,63.19
2024-02-08T12:17:01.475Z,61.69
2024-02-08T12:22:16.714Z,61.75
2024-02-08T12:27:27.000Z,61.75
2024-02-08T12:32:32.324Z,62.19
2024-02-08T12:37:38.146Z,62.97
2024-02-08T12:42:42.650Z,61.31
2024-02-08T12:47:51.711Z,61.63
2024-02-08T12:52:57.162Z,61.66
2024-02-08T12:58:05.278Z,61.37
2024-02-08T13:03:10.424Z,61.88
2024-02-08T13:08:23.328Z,60.35
2024-02-08T13:13:26.162Z,60.37
2024-02-08T13:18:33.079Z,59.63
2024-02-08T13:23:39.747Z,59.58
2024-02-08T13:28:43.688Z,59.42
2024-02-08T13:33:46.750Z,59.35
2024-02-08T13:38:51.117Z,58.76
2024-02-08T13:43:56.611Z,59.95
2024-02-08T13:49:00.076Z,59.19
2024-02-08T13:54:03.415Z,58.99
2024-02-08T13:59:06.760Z,59.96
2024-02-08T14:04:09.642Z,58.71
2024-02-08T14:09:24.150Z,60.92
2024-02-08T14:14:42.026Z,60.47
2024-02-08T14:19:46.732Z,59.61
2024-02-08T14:24:52.949Z,58.91
2024-02-08T14:29:56.487Z,58.64
2024-02-08T14:35:00.678Z,60.57
2024-02-08T14:40:15.459Z,59.79
2024-02-08T14:45:18.730Z,59.31
2024-02-08T14:50:40.824Z,59.69
2024-02-08T14:55:48.732Z,60.55
2024-02-08T15:01:00.977Z,62.00
2024-02-08T15:06:07.138Z,59.95
2024-02-08T15:11:27.218Z,60.63
2024-02-08T15:16:33.317Z,60.97
2024-02-08T15:21:37.659Z,60.58
2024-02-08T15:27:05.709Z,60.88
2024-02-08T15:32:32.331Z,60.76
2024-02-08T15:37:45.865Z,59.74
2024-02-08T15:42:50.683Z,59.33
2024-02-08T15:47:59.994Z,60.88
2024-02-08T15:53:10.889Z,60.92
2024-02-08T15:58:27.778Z,62.32
2024-02-08T16:03:39.130Z,62.17
2024-02-08T16:08:48.245Z,61.67
2024-02-08T16:13:58.813Z,62.50
2024-02-08T16:19:24.906Z,62.23
2024-02-08T16:24:32.250Z,63.01
2024-02-08T16:29:36.467Z,63.22
2024-02-08T16:34:52.374Z,63.72
2024-02-08T16:40:09.381Z,63.54
2024-02-08T16:45:35.766Z,64.52
2024-02-08T16:51:17.965Z,64.04
2024-02-08T16:56:24.142Z,66.18
2024-02-08T17:01:31.815Z,66.47
2024-02-08T17:06:55.781Z,66.49
2024-02-08T17:12:06.782Z,65.86
2024-02-08T17:17:27.255Z,66.28
2024-02-08T17:22:42.265Z,66.96
2024-02-08T17:28:04.547Z,67.63
2024-02-08T17:33:13.294Z,67.93
2024-02-08T17:38:21.513Z,66.81
2024-02-08T17:43:25.524Z,66.88
2024-02-08T17:48:34.113Z,66.10
2024-02-08T17:53:46.339Z,67.96
2024-02-08T17:58:56.589Z,68.99
2024-02-08T18:04:03.788Z,69.50
2024-02-08T18:09:07.590Z,69.05
2024-02-08T18:14:17.050Z,69.71
2024-02-08T18:19:28.617Z,69.43
2024-02-08T18:24:34.075Z,69.61
2024-02-08T18:29:39.433Z,69.74
2024-02-08T18:34:42.274Z,70.88
2024-02-08T18:39:45.280Z,70.30
2024-02-08T18:44:52.333Z,70.42
2024-02-08T18:49:59.087Z,70.69
2024-02-08T18:55:11.118Z,71.68
2024-02-08T19:00:15.378Z,73.07
2024-02-08T19:05:25.550Z,72.44
2024-02-08T19:10:30.664Z,70.75
2024-02-08T19:15:39.085Z,71.72
2024-02-08T19:20:45.650Z,72.83
2024-02-08T19:25:56.406Z,72.19
2024-02-08T19:31:01.370Z,73.03
2024-02-08T19:36:12.116Z,73.81
2024-02-08T19:41:16.839Z,73.44
2024-02-08T19:46:20.776Z,73.75
2024-02-08T19:51:26.730Z,71.04
2024-02-08T19:56:35.185Z,72.58
2024-02-08T20:01:38.421Z,72.32
2024-02-08T20:06:48.984Z,71.55
2024-02-08T20:11:59.846Z,72.71
2024-02-08T20:17:06.022Z,72.11
2024-02-08T20:22:13.482Z,72.89
2024-02-08T20:27:19.731Z,71.66
2024-02-08T20:32:30.132Z,72.03
2024-02-08T20:37:33.919Z,69.41
2024-02-08T20:42:37.310Z,70.11
2024-02-08T20:47:43.251Z,70.92
2024-02-08T20:52:49.279Z,69.59
2024-02-08T20:57:54.283Z,69.20
2024-02-08T21:03:03.455Z,69.43
2024-02-08T21:08:09.199Z,67.62
2024-02-08T21:13:18.863Z,66.35
2024-02-08T21:18:23.368Z,66.21
2024-02-08T21:23:26.647Z,65.29
2024-02-08T21:28:31.257Z,66.81
2024-02-08T21:33:34.806Z,67.84
2024-02-08T21:38:37.764Z,68.03
2024-02-08T21:43:41.198Z,68.11
2024-02-08T21:48:44.989Z,66.23
2024-02-08T21:53:49.815Z,64.92
2024-02-08T21:58:52.679Z,62.21
2024-02-08T22:03:56.021Z,64.46
2024-02-08T22:08:59.552Z,62.11
2024-02-08T22:14:02.397Z,62.95
2024-02-08T22:19:05.355Z,62.05
2024-02-08T22:24:09.932Z,61.51
2024-02-08T22:29:14.875Z,61.65
2024-02-08T22:34:19.566Z,60.47
2024-02-08T22:39:24.577Z,61.97
2024-02-08T22:44:28.919Z,61.38
2024-02-08T22:49:31.890Z,60.27
2024-02-08T22:54:35.110Z,58.28
2024-02-08T22:59:38.103Z,56.53
2024-02-08T23:04:43.311Z,55.87
2024-02-08T23:09:46.286Z,55.67
2024-02-08T23:14:48.947Z,55.81
2024-02-08T23:19:54.271Z,54.86
2024-02-08T23:24:59.755Z,55.28
2024-02-08T23:30:03.124Z,54.04
2024-02-08T23:35:13.836Z,55.54
2024-02-08T23:40:17.095Z,55.71
2024-02-08T23:45:20.821Z,54.95
2024-02-08T23:50:28.137Z,55.14
2024-02-08T23:55:31.577Z,55.46
